createdAt,value
2023-01-19T00:00:58.638Z,5.03
2023-01-19T00:03:25.635Z,5.02
2023-01-19T00:05:52.949Z,5.03
2023-01-19T00:08:20.067Z,4.99
2023-01-19T00:10:49.193Z,5.00
2023-01-19T00:13:16.409Z,4.96
2023-01-19T00:15:45.067Z,4.96
2023-01-19T00:18:12.072Z,4.97
2023-01-19T00:20:42.361Z,4.94
2023-01-19T00:23:09.726Z,4.93
2023-01-19T00:25:43.807Z,4.92
2023-01-19T00:28:15.640Z,4.95
2023-01-19T00:30:44.164Z,4.94
2023-01-19T00:33:16.216Z,4.89
2023-01-19T00:35:43.738Z,4.83
2023-01-19T00:38:11.961Z,4.81
2023-01-19T00:40:38.947Z,4.75
2023-01-19T00:43:05.994Z,4.74
2023-01-19T00:45:33.869Z,4.62
2023-01-19T00:48:00.884Z,4.66
2023-01-19T00:50:29.193Z,4.69
2023-01-19T00:52:58.005Z,4.64
2023-01-19T00:55:25.128Z,4.65
2023-01-19T00:57:52.143Z,4.61
2023-01-19T01:00:20.208Z,4.61
2023-01-19T01:02:48.693Z,4.64
2023-01-19T01:05:16.006Z,4.60
2023-01-19T01:07:44.885Z,4.56
2023-01-19T01:10:21.502Z,4.56
2023-01-19T01:12:55.987Z,4.56
2023-01-19T01:15:26.694Z,4.55
2023-01-19T01:17:54.012Z,4.60
2023-01-19T01:20:25.548Z,4.60
2023-01-19T01:22:57.675Z,4.63
2023-01-19T01:25:26.571Z,4.62
2023-01-19T01:27:54.437Z,4.63
2023-01-19T01:30:21.863Z,4.63
2023-01-19T01:32:49.402Z,4.57
2023-01-19T01:35:16.786Z,4.57
2023-01-19T01:37:43.819Z,4.57
2023-01-19T01:40:17.348Z,4.53
2023-01-19T01:42:45.746Z,4.55
2023-01-19T01:45:35.220Z,4.58
2023-01-19T01:48:14.866Z,4.57
2023-01-19T01:51:09.915Z,4.52
2023-01-19T01:53:37.782Z,4.51
2023-01-19T01:56:09.983Z,4.49
2023-01-19T01:58:39.062Z,4.54
2023-01-19T02:01:26.498Z,4.49
2023-01-19T02:03:57.954Z,4.41
2023-01-19T02:06:26.030Z,4.34
2023-01-19T02:09:29.263Z,4.33
2023-01-19T02:12:15.872Z,4.29
2023-01-19T02:14:42.922Z,4.24
2023-01-19T02:17:09.903Z,4.21
2023-01-19T02:19:42.631Z,4.16
2023-01-19T02:22:32.162Z,4.14
2023-01-19T02:24:59.503Z,4.13
2023-01-19T02:27:26.510Z,4.11
2023-01-19T02:29:53.745Z,4.10
2023-01-19T02:32:20.825Z,4.00
2023-01-19T02:34:47.843Z,4.04
2023-01-19T02:37:18.693Z,4.04
2023-01-19T02:39:58.783Z,4.05
2023-01-19T02:42:27.994Z,4.05
2023-01-19T02:44:56.822Z,4.08
2023-01-19T02:47:24.588Z,4.09
2023-01-19T02:49:59.264Z,4.10
2023-01-19T02:52:27.882Z,4.15
2023-01-19T02:55:15.667Z,4.15
2023-01-19T02:58:07.524Z,4.18
2023-01-19T03:00:43.909Z,4.21
2023-01-19T03:03:31.205Z,4.23
2023-01-19T03:06:21.907Z,4.23
2023-01-19T03:09:25.881Z,4.26
2023-01-19T03:12:04.883Z,4.26
2023-01-19T03:14:33.902Z,4.31
2023-01-19T03:17:05.330Z,4.31
2023-01-19T03:19:40.643Z,4.30
2023-01-19T03:22:13.799Z,4.38
2023-01-19T03:24:43.583Z,4.33
2023-01-19T03:27:24.824Z,4.33
2023-01-19T03:29:59.986Z,4.14
2023-01-19T03:32:36.550Z,4.13
2023-01-19T03:35:10.288Z,4.17
2023-01-19T03:37:42.856Z,4.10
2023-01-19T03:40:11.003Z,4.08
2023-01-19T03:42:39.762Z,4.10
2023-01-19T03:45:09.367Z,4.10
2023-01-19T03:47:36.742Z,4.11
2023-01-19T03:50:09.382Z,4.14
2023-01-19T03:52:36.431Z,4.13
2023-01-19T03:55:05.663Z,4.13
2023-01-19T03:57:32.945Z,4.09
2023-01-19T03:59:59.965Z,4.11
2023-01-19T04:02:27.273Z,4.11
2023-01-19T04:04:54.211Z,4.15
2023-01-19T04:07:21.409Z,4.10
2023-01-19T04:09:48.426Z,4.05
2023-01-19T04:12:15.904Z,3.97
2023-01-19T04:14:42.930Z,4.05
2023-01-19T04:17:10.583Z,4.07
2023-01-19T04:19:37.626Z,4.05
2023-01-19T04:22:05.083Z,4.10
2023-01-19T04:24:32.305Z,4.13
2023-01-19T04:26:59.364Z,4.17
2023-01-19T04:29:26.502Z,4.14
2023-01-19T04:31:53.547Z,4.01
2023-01-19T04:34:20.542Z,4.06
2023-01-19T04:36:51.242Z,4.15
2023-01-19T04:39:18.263Z,4.17
2023-01-19T04:41:45.225Z,4.11
2023-01-19T04:44:12.483Z,4.19
2023-01-19T04:46:39.709Z,4.16
2023-01-19T04:49:06.783Z,4.15
2023-01-19T04:51:34.562Z,4.10
2023-01-19T04:54:02.489Z,4.11
2023-01-19T04:56:30.015Z,4.10
2023-01-19T04:58:57.024Z,4.13
2023-01-19T05:01:25.084Z,4.17
2023-01-19T05:03:52.270Z,4.16
2023-01-19T05:06:19.653Z,4.10
2023-01-19T05:08:46.763Z,3.97
2023-01-19T05:11:13.798Z,3.86
2023-01-19T05:13:40.864Z,3.88
2023-01-19T05:16:08.301Z,3.79
2023-01-19T05:18:37.256Z,3.77
2023-01-19T05:21:04.836Z,3.82
2023-01-19T05:23:33.037Z,3.73
2023-01-19T05:26:03.590Z,3.64
2023-01-19T05:28:32.938Z,3.66
2023-01-19T05:31:00.491Z,3.86
2023-01-19T05:33:28.059Z,3.95
2023-01-19T05:35:55.857Z,3.96
2023-01-19T05:38:34.614Z,4.07
2023-01-19T05:41:03.059Z,4.06
2023-01-19T05:43:30.417Z,3.89
2023-01-19T05:45:57.658Z,3.89
2023-01-19T05:48:24.984Z,4.03
2023-01-19T05:50:52.255Z,3.88
2023-01-19T05:53:19.495Z,3.98
2023-01-19T05:55:46.697Z,4.12
2023-01-19T05:58:13.818Z,4.19
2023-01-19T06:00:41.068Z,4.15
2023-01-19T06:03:08.504Z,4.10
2023-01-19T06:05:38.383Z,4.10
2023-01-19T06:08:05.896Z,4.21
2023-01-19T06:10:33.375Z,4.26
2023-01-19T06:13:00.768Z,4.18
2023-01-19T06:15:28.184Z,4.20
2023-01-19T06:17:55.459Z,4.28
2023-01-19T06:20:22.860Z,4.30
2023-01-19T06:22:50.177Z,4.34
2023-01-19T06:25:17.584Z,4.38
2023-01-19T06:27:45.946Z,4.35
2023-01-19T06:30:14.141Z,4.40
2023-01-19T06:32:41.383Z,4.41
2023-01-19T06:35:09.096Z,4.42
2023-01-19T06:37:37.126Z,4.44
2023-01-19T06:40:04.618Z,4.43
2023-01-19T06:42:31.944Z,4.35
2023-01-19T06:44:59.303Z,4.38
2023-01-19T06:47:26.534Z,4.39
2023-01-19T06:49:54.066Z,4.42
2023-01-19T06:52:21.416Z,4.36
2023-01-19T06:54:48.820Z,4.34
2023-01-19T06:57:17.576Z,4.39
2023-01-19T06:59:44.909Z,4.26
2023-01-19T07:02:26.490Z,4.36
2023-01-19T07:04:56.120Z,4.40
2023-01-19T07:07:23.398Z,4.38
2023-01-19T07:09:53.846Z,4.39
2023-01-19T07:12:22.544Z,4.40
2023-01-19T07:14:49.896Z,4.35
2023-01-19T07:17:17.222Z,4.18
2023-01-19T07:19:44.815Z,4.26
2023-01-19T07:22:12.136Z,4.29
2023-01-19T07:24:39.695Z,4.26
2023-01-19T07:27:06.983Z,4.25
2023-01-19T07:29:34.306Z,4.34
2023-01-19T07:32:01.550Z,4.32
2023-01-19T07:34:28.775Z,4.45
2023-01-19T07:36:59.183Z,4.45
2023-01-19T07:39:26.415Z,4.41
2023-01-19T07:41:53.704Z,4.18
2023-01-19T07:44:23.342Z,4.17
2023-01-19T07:46:51.461Z,4.27
2023-01-19T07:49:18.898Z,4.42
2023-01-19T07:51:46.216Z,4.48
2023-01-19T07:54:13.416Z,4.49
2023-01-19T07:56:40.859Z,4.48
2023-01-19T07:59:09.860Z,4.50
2023-01-19T08:01:38.124Z,4.26
2023-01-19T08:04:06.052Z,4.29
2023-01-19T08:06:35.655Z,4.32
2023-01-19T08:09:05.816Z,4.21
2023-01-19T08:11:33.895Z,4.35
2023-01-19T08:14:01.295Z,4.44
2023-01-19T08:16:28.576Z,4.32
2023-01-19T08:18:55.988Z,4.44
2023-01-19T08:21:23.218Z,4.31
2023-01-19T08:23:57.889Z,4.32
2023-01-19T08:26:32.217Z,4.30
2023-01-19T08:29:02.541Z,4.41
2023-01-19T08:31:30.026Z,4.46
2023-01-19T08:33:57.566Z,4.36
2023-01-19T08:36:25.536Z,4.42
2023-01-19T08:38:52.983Z,4.42
2023-01-19T08:41:20.425Z,4.54
2023-01-19T08:43:47.947Z,4.64
2023-01-19T08:46:21.645Z,4.63
2023-01-19T08:48:49.735Z,4.64
2023-01-19T08:51:17.683Z,4.72
2023-01-19T08:53:44.978Z,4.80
2023-01-19T08:56:15.462Z,4.85
2023-01-19T08:58:45.709Z,4.88
2023-01-19T09:01:23.183Z,4.89
2023-01-19T09:03:50.619Z,4.91
2023-01-19T09:06:19.535Z,4.92
2023-01-19T09:08:47.895Z,4.87
2023-01-19T09:11:16.736Z,4.90
2023-01-19T09:13:44.027Z,4.75
2023-01-19T09:16:13.590Z,4.64
2023-01-19T09:18:41.057Z,4.59
2023-01-19T09:21:09.414Z,4.73
2023-01-19T09:23:36.695Z,4.66
2023-01-19T09:26:05.935Z,4.68
2023-01-19T09:28:33.459Z,4.61
2023-01-19T09:31:05.886Z,4.65
2023-01-19T09:33:33.576Z,4.62
2023-01-19T09:36:02.373Z,4.78
2023-01-19T09:38:33.053Z,4.76
2023-01-19T09:41:00.898Z,4.94
2023-01-19T09:43:58.179Z,4.82
2023-01-19T09:46:28.489Z,5.02
2023-01-19T09:48:58.815Z,4.84
2023-01-19T09:51:29.108Z,4.96
2023-01-19T09:54:41.383Z,5.01
2023-01-19T09:57:12.935Z,5.06
2023-01-19T09:59:41.896Z,5.24
2023-01-19T10:02:36.607Z,5.32
2023-01-19T10:05:14.213Z,5.32
2023-01-19T10:08:14.895Z,5.16
2023-01-19T10:10:47.774Z,5.35
2023-01-19T10:13:44.230Z,5.24
2023-01-19T10:16:38.783Z,5.09
2023-01-19T10:19:30.654Z,5.26
2023-01-19T10:22:00.975Z,5.42
2023-01-19T10:24:33.625Z,5.55
2023-01-19T10:27:01.216Z,5.40
2023-01-19T10:29:38.039Z,5.59
2023-01-19T10:32:21.504Z,5.66
2023-01-19T10:34:50.940Z,5.74
2023-01-19T10:37:18.100Z,5.77
2023-01-19T10:39:55.401Z,5.81
2023-01-19T10:42:22.524Z,5.78
2023-01-19T10:44:50.053Z,5.67
2023-01-19T10:47:23.215Z,5.48
2023-01-19T10:49:50.814Z,5.51
2023-01-19T10:52:32.979Z,5.60
2023-01-19T10:55:03.253Z,5.60
2023-01-19T10:57:38.591Z,5.69
2023-01-19T11:00:27.015Z,5.76
2023-01-19T11:02:54.405Z,5.82
2023-01-19T11:05:25.095Z,5.79
2023-01-19T11:07:52.736Z,5.76
2023-01-19T11:10:23.176Z,5.76
2023-01-19T11:13:13.615Z,5.82
2023-01-19T11:15:51.336Z,5.82
2023-01-19T11:18:28.950Z,5.82
2023-01-19T11:21:01.225Z,5.80
2023-01-19T11:23:34.015Z,5.79
2023-01-19T11:26:05.615Z,5.80
2023-01-19T11:28:45.060Z,5.79
2023-01-19T11:31:15.163Z,5.81
2023-01-19T11:33:50.823Z,5.59
2023-01-19T11:36:27.337Z,5.72
2023-01-19T11:38:57.260Z,5.70
2023-01-19T11:41:47.304Z,5.72
2023-01-19T11:44:25.695Z,5.65
2023-01-19T11:46:59.857Z,5.69
2023-01-19T11:49:47.214Z,5.68
2023-01-19T11:52:27.574Z,5.58
2023-01-19T11:55:20.303Z,5.59
2023-01-19T11:57:51.962Z,5.64
2023-01-19T12:00:29.780Z,5.68
2023-01-19T12:13:27.508Z,4.72
2023-01-19T12:16:09.352Z,4.69
2023-01-19T12:18:48.419Z,4.69
2023-01-19T12:21:15.739Z,4.80
2023-01-19T12:23:51.985Z,4.87
2023-01-19T12:26:42.942Z,4.99
2023-01-19T12:29:17.857Z,5.07
2023-01-19T12:31:45.328Z,5.13
2023-01-19T12:34:39.924Z,5.16
2023-01-19T12:37:29.181Z,5.20
2023-01-19T12:40:00.664Z,5.14
2023-01-19T12:42:29.070Z,5.18
2023-01-19T12:45:09.498Z,5.27
2023-01-19T12:47:37.579Z,5.25
2023-01-19T12:50:13.574Z,5.20
2023-01-19T12:53:00.217Z,5.12
2023-01-19T12:55:31.331Z,5.06
2023-01-19T12:58:27.257Z,5.18
2023-01-19T13:01:16.488Z,5.17
2023-01-19T13:04:09.391Z,5.25
2023-01-19T13:06:48.916Z,5.23
2023-01-19T13:09:30.021Z,5.23
2023-01-19T13:12:21.903Z,5.27
2023-01-19T13:14:51.017Z,5.29
2023-01-19T13:17:42.703Z,5.30
2023-01-19T13:20:25.335Z,5.23
2023-01-19T13:23:01.344Z,5.27
2023-01-19T13:25:33.940Z,5.35
2023-01-19T13:28:02.281Z,5.35
2023-01-19T13:30:30.245Z,5.40
2023-01-19T13:33:05.779Z,5.20
2023-01-19T13:35:33.174Z,5.14
2023-01-19T13:38:01.463Z,5.31
2023-01-19T13:40:41.417Z,5.24
2023-01-19T13:43:18.615Z,5.33
2023-01-19T13:45:53.438Z,5.35
2023-01-19T13:48:23.092Z,5.39
2023-01-19T13:51:19.461Z,5.32
2023-01-19T13:54:03.321Z,5.33
2023-01-19T13:56:30.747Z,5.15
2023-01-19T13:59:17.883Z,5.39
2023-01-19T14:01:46.797Z,5.39
2023-01-19T14:04:31.613Z,5.33
2023-01-19T14:07:05.366Z,5.29
2023-01-19T14:09:32.617Z,5.29
2023-01-19T14:12:13.331Z,5.31
2023-01-19T14:14:42.230Z,5.32
2023-01-19T14:17:35.685Z,5.29
2023-01-19T14:20:02.889Z,5.25
2023-01-19T14:22:46.683Z,5.20
2023-01-19T14:25:30.141Z,5.18
2023-01-19T14:28:43.640Z,5.22
2023-01-19T14:31:22.440Z,5.26
2023-01-19T14:33:55.203Z,5.20
2023-01-19T14:36:29.899Z,5.23
2023-01-19T14:38:59.571Z,5.25
2023-01-19T14:41:49.755Z,5.17
2023-01-19T14:44:28.861Z,5.19
2023-01-19T14:46:56.711Z,5.17
2023-01-19T14:49:35.432Z,5.17
2023-01-19T14:52:06.485Z,5.14
2023-01-19T14:54:38.489Z,5.12
2023-01-19T14:57:09.583Z,5.14
2023-01-19T14:59:36.521Z,5.15
2023-01-19T15:02:03.539Z,5.15
2023-01-19T15:04:30.604Z,5.09
2023-01-19T15:06:57.850Z,5.08
2023-01-19T15:09:25.364Z,5.10
2023-01-19T15:11:53.310Z,5.10
2023-01-19T15:14:21.716Z,5.08
2023-01-19T15:16:49.450Z,5.01
2023-01-19T15:19:17.639Z,5.03
2023-01-19T15:21:46.449Z,5.04
2023-01-19T15:24:16.351Z,5.03
2023-01-19T15:26:44.763Z,5.01
2023-01-19T15:29:24.921Z,4.97
2023-01-19T15:31:52.774Z,4.94
2023-01-19T15:34:19.768Z,4.92
2023-01-19T15:36:46.753Z,4.90
2023-01-19T15:39:13.755Z,4.88
2023-01-19T15:41:40.805Z,4.76
2023-01-19T15:44:10.930Z,4.78
2023-01-19T15:46:39.029Z,4.71
2023-01-19T15:49:06.109Z,4.67
2023-01-19T15:51:33.326Z,4.61
2023-01-19T15:54:00.636Z,4.64
2023-01-19T15:56:31.519Z,4.55
2023-01-19T15:58:59.332Z,4.52
2023-01-19T16:01:32.455Z,4.47
2023-01-19T16:04:05.571Z,4.45
2023-01-19T16:06:34.550Z,4.40
2023-01-19T16:09:01.930Z,4.40
2023-01-19T16:11:31.584Z,4.38
2023-01-19T16:13:58.984Z,4.32
2023-01-19T16:16:28.401Z,4.32
2023-01-19T16:18:55.836Z,4.29
2023-01-19T16:21:23.953Z,4.26
2023-01-19T16:23:51.451Z,4.24
2023-01-19T16:26:29.422Z,4.21
2023-01-19T16:29:11.116Z,4.14
2023-01-19T16:31:39.491Z,4.07
2023-01-19T16:34:06.419Z,4.02
2023-01-19T16:36:35.657Z,3.98
2023-01-19T16:39:07.916Z,3.99
2023-01-19T16:41:35.509Z,3.97
2023-01-19T16:44:03.310Z,3.89
2023-01-19T16:46:38.782Z,3.82
2023-01-19T16:49:17.465Z,3.80
2023-01-19T16:51:45.891Z,3.76
2023-01-19T16:54:14.596Z,3.71
2023-01-19T16:56:42.126Z,3.67
2023-01-19T16:59:12.343Z,3.63
2023-01-19T17:01:39.441Z,3.57
2023-01-19T17:04:06.528Z,3.50
2023-01-19T17:06:33.880Z,3.46
2023-01-19T17:09:00.981Z,3.41
2023-01-19T17:11:30.430Z,3.37
2023-01-19T17:14:00.445Z,3.29
2023-01-19T17:16:29.469Z,3.28
2023-01-19T17:18:58.439Z,3.26
2023-01-19T17:21:26.062Z,3.22
2023-01-19T17:23:54.627Z,3.19
2023-01-19T17:26:23.103Z,3.18
2023-01-19T17:28:50.155Z,3.17
2023-01-19T17:31:20.245Z,3.17
2023-01-19T17:33:49.269Z,3.17
2023-01-19T17:36:22.722Z,3.14
2023-01-19T17:38:50.274Z,3.13
2023-01-19T17:41:22.964Z,3.09
2023-01-19T17:43:51.360Z,3.12
2023-01-19T17:46:20.402Z,3.08
2023-01-19T17:48:59.926Z,3.08
2023-01-19T17:51:28.362Z,3.08
2023-01-19T17:53:55.893Z,3.09
2023-01-19T17:56:30.082Z,3.08
2023-01-19T17:58:58.800Z,3.05
2023-01-19T18:01:29.213Z,3.02
2023-01-19T18:03:57.281Z,2.98
2023-01-19T18:06:24.338Z,2.96
2023-01-19T18:08:52.659Z,2.90
2023-01-19T18:11:21.114Z,2.88
2023-01-19T18:13:50.033Z,2.80
2023-01-19T18:16:25.626Z,2.73
2023-01-19T18:18:54.480Z,2.66
2023-01-19T18:21:22.753Z,2.65
2023-01-19T18:23:51.010Z,2.60
2023-01-19T18:26:22.271Z,2.57
2023-01-19T18:28:49.795Z,2.56
2023-01-19T18:31:19.029Z,2.48
2023-01-19T18:33:47.743Z,2.41
2023-01-19T18:36:15.392Z,2.36
2023-01-19T18:38:43.025Z,2.30
2023-01-19T18:41:21.209Z,2.31
2023-01-19T18:43:48.351Z,2.35
2023-01-19T18:46:15.779Z,2.27
2023-01-19T18:48:42.816Z,2.17
2023-01-19T18:51:13.484Z,2.10
2023-01-19T18:53:40.673Z,2.05
2023-01-19T18:56:08.117Z,1.94
2023-01-19T18:58:38.139Z,2.02
2023-01-19T19:01:16.732Z,2.03
2023-01-19T19:03:43.798Z,1.94
2023-01-19T19:06:10.780Z,1.90
2023-01-19T19:08:37.883Z,1.85
2023-01-19T19:11:08.828Z,1.80
2023-01-19T19:13:36.863Z,1.82
2023-01-19T19:16:06.581Z,1.82
2023-01-19T19:18:35.761Z,1.83
2023-01-19T19:21:08.061Z,1.84
2023-01-19T19:23:35.484Z,1.85
2023-01-19T19:26:07.912Z,1.85
2023-01-19T19:28:36.712Z,1.84
2023-01-19T19:31:04.658Z,1.86
2023-01-19T19:33:31.727Z,1.85
2023-01-19T19:35:59.362Z,1.83
2023-01-19T19:38:27.362Z,1.89
2023-01-19T19:40:57.746Z,1.91
2023-01-19T19:43:25.044Z,1.93
2023-01-19T19:46:00.207Z,1.95
2023-01-19T19:48:28.161Z,2.00
2023-01-19T19:50:58.609Z,2.06
2023-01-19T19:53:27.279Z,2.09
2023-01-19T19:55:59.439Z,2.13
2023-01-19T19:58:27.829Z,2.17
2023-01-19T20:00:55.521Z,2.21
2023-01-19T20:03:26.771Z,2.24
2023-01-19T20:05:53.782Z,2.27
2023-01-19T20:08:20.724Z,2.29
2023-01-19T20:10:47.683Z,2.35
2023-01-19T20:13:18.033Z,2.35
2023-01-19T20:15:45.441Z,2.39
2023-01-19T20:18:12.480Z,2.39
2023-01-19T20:20:39.602Z,2.41
2023-01-19T20:23:06.608Z,2.46
2023-01-19T20:25:33.581Z,2.44
2023-01-19T20:28:00.610Z,2.49
2023-01-19T20:30:28.441Z,2.47
2023-01-19T20:32:55.524Z,2.50
2023-01-19T20:35:22.484Z,2.52
2023-01-19T20:37:49.463Z,2.54
2023-01-19T20:40:16.503Z,2.50
2023-01-19T20:42:44.581Z,2.49
2023-01-19T20:45:12.056Z,2.48
2023-01-19T20:47:39.091Z,2.51
2023-01-19T20:50:06.590Z,2.55
2023-01-19T20:52:35.636Z,2.56
2023-01-19T20:55:02.685Z,2.55
2023-01-19T20:57:29.730Z,2.58
2023-01-19T20:59:56.811Z,2.49
2023-01-19T21:02:23.802Z,2.54
2023-01-19T21:04:53.479Z,2.59
2023-01-19T21:07:20.562Z,2.59
2023-01-19T21:09:47.700Z,2.66
2023-01-19T21:12:16.206Z,2.68
2023-01-19T21:14:45.364Z,2.69
2023-01-19T21:17:12.303Z,2.73
2023-01-19T21:19:39.287Z,2.74
2023-01-19T21:22:06.412Z,2.76
2023-01-19T21:24:33.380Z,2.78
2023-01-19T21:27:00.359Z,2.80
2023-01-19T21:29:27.444Z,2.80
2023-01-19T21:31:54.431Z,2.82
2023-01-19T21:34:21.442Z,2.80
2023-01-19T21:36:48.463Z,2.78
2023-01-19T21:39:17.238Z,2.79
2023-01-19T21:41:45.338Z,2.78
2023-01-19T21:44:15.490Z,2.78
2023-01-19T21:46:42.592Z,2.76
2023-01-19T21:49:16.446Z,2.69
2023-01-19T21:51:43.643Z,2.70
2023-01-19T21:54:10.661Z,2.68
2023-01-19T21:56:38.209Z,2.66
2023-01-19T21:59:05.985Z,2.57
2023-01-19T22:01:34.214Z,2.57
2023-01-19T22:04:01.324Z,2.53
2023-01-19T22:06:29.000Z,2.52
2023-01-19T22:08:58.003Z,2.47
2023-01-19T22:11:25.138Z,2.44
2023-01-19T22:13:52.279Z,2.40
2023-01-19T22:16:21.282Z,2.39
2023-01-19T22:19:01.209Z,2.33
2023-01-19T22:21:31.583Z,2.31
2023-01-19T22:24:00.039Z,2.22
2023-01-19T22:26:29.005Z,2.21
2023-01-19T22:28:57.965Z,2.18
2023-01-19T22:31:26.712Z,2.17
2023-01-19T22:33:54.324Z,2.15
2023-01-19T22:36:29.651Z,2.12
2023-01-19T22:39:02.579Z,2.12
2023-01-19T22:41:32.210Z,2.13
2023-01-19T22:44:01.509Z,2.09
2023-01-19T22:46:31.481Z,2.09
2023-01-19T22:48:59.611Z,2.11
2023-01-19T22:51:29.596Z,2.13
2023-01-19T22:53:56.992Z,2.14
2023-01-19T22:56:29.446Z,2.13
2023-01-19T22:58:57.064Z,2.13
2023-01-19T23:01:33.796Z,2.11
2023-01-19T23:04:02.506Z,2.07
2023-01-19T23:06:32.866Z,2.07
2023-01-19T23:09:02.155Z,2.04
2023-01-19T23:11:40.791Z,2.01
2023-01-19T23:14:09.900Z,2.02
2023-01-19T23:16:36.881Z,1.99
2023-01-19T23:19:04.823Z,2.00
2023-01-19T23:21:32.680Z,2.01
2023-01-19T23:24:03.382Z,1.99
2023-01-19T23:26:31.594Z,1.99
2023-01-19T23:29:01.057Z,1.90
2023-01-19T23:31:33.345Z,1.91
2023-01-19T23:34:06.450Z,1.89
2023-01-19T23:36:35.081Z,1.83
2023-01-19T23:39:05.728Z,1.81
2023-01-19T23:41:36.777Z,1.75
2023-01-19T23:44:04.382Z,1.75
2023-01-19T23:46:31.501Z,1.74
2023-01-19T23:48:58.592Z,1.72
2023-01-19T23:51:28.451Z,1.67
2023-01-19T23:53:57.036Z,1.65
2023-01-19T23:56:25.110Z,1.62
2023-01-19T23:58:55.264Z,1.61
